createdAt,value
2018-11-21T00:01:17.449Z,4.07
2018-11-21T00:03:46.385Z,3.98
2018-11-21T00:06:15.314Z,3.91
2018-11-21T00:08:44.249Z,3.90
2018-11-21T00:11:13.153Z,3.90
2018-11-21T00:13:42.075Z,3.94
2018-11-21T00:16:10.960Z,3.84
2018-11-21T00:18:39.865Z,3.76
2018-11-21T00:21:08.871Z,3.74
2018-11-21T00:23:37.756Z,3.74
2018-11-21T00:26:06.704Z,3.65
2018-11-21T00:28:35.618Z,3.58
2018-11-21T00:31:04.540Z,3.60
2018-11-21T00:33:33.476Z,3.56
2018-11-21T00:36:02.382Z,3.48
2018-11-21T00:38:31.356Z,3.33
2018-11-21T00:41:00.275Z,3.40
2018-11-21T00:43:29.199Z,3.66
2018-11-21T00:45:58.102Z,3.44
2018-11-21T00:48:27.210Z,3.44
2018-11-21T00:50:56.130Z,3.44
2018-11-21T00:53:25.042Z,3.38
2018-11-21T00:55:53.954Z,3.21
2018-11-21T00:58:22.842Z,3.24
2018-11-21T01:00:51.766Z,3.34
2018-11-21T01:03:20.668Z,3.30
2018-11-21T01:05:49.823Z,3.29
2018-11-21T01:08:18.743Z,3.32
2018-11-21T01:10:47.657Z,3.34
2018-11-21T01:13:16.572Z,3.31
2018-11-21T01:15:45.508Z,3.34
2018-11-21T01:18:14.410Z,3.34
2018-11-21T01:20:43.325Z,3.41
2018-11-21T01:23:12.227Z,3.40
2018-11-21T01:25:41.112Z,3.54
2018-11-21T01:28:10.020Z,3.49
2018-11-21T01:30:38.974Z,3.69
2018-11-21T01:33:09.677Z,3.76
2018-11-21T01:35:36.873Z,3.56
2018-11-21T01:38:05.977Z,3.56
2018-11-21T01:40:34.883Z,3.60
2018-11-21T01:43:03.781Z,3.67
2018-11-21T01:45:32.689Z,3.66
2018-11-21T01:48:01.590Z,3.60
2018-11-21T01:50:30.490Z,3.60
2018-11-21T01:52:59.364Z,3.61
2018-11-21T01:55:28.293Z,3.62
2018-11-21T01:57:57.175Z,3.66
2018-11-21T02:00:26.152Z,3.68
2018-11-21T02:02:55.059Z,3.62
2018-11-21T02:05:23.958Z,3.65
2018-11-21T02:07:52.890Z,3.71
2018-11-21T02:10:21.850Z,3.59
2018-11-21T02:12:50.762Z,3.64
2018-11-21T02:15:19.656Z,3.73
2018-11-21T02:17:48.549Z,3.65
2018-11-21T02:20:17.452Z,3.67
2018-11-21T02:22:46.366Z,3.61
2018-11-21T02:25:15.255Z,3.54
2018-11-21T02:27:44.197Z,3.41
2018-11-21T02:30:13.094Z,3.47
2018-11-21T02:32:42.034Z,3.73
2018-11-21T02:35:10.926Z,3.61
2018-11-21T02:37:39.835Z,3.59
2018-11-21T02:40:08.975Z,3.57
2018-11-21T02:42:37.862Z,3.55
2018-11-21T02:45:07.060Z,3.52
2018-11-21T02:47:35.950Z,3.46
2018-11-21T02:50:05.100Z,3.33
2018-11-21T02:52:34.041Z,3.32
2018-11-21T02:55:02.971Z,3.36
2018-11-21T02:57:33.301Z,3.65
2018-11-21T03:00:08.709Z,3.57
2018-11-21T03:02:37.630Z,3.60
2018-11-21T03:05:06.664Z,3.53
2018-11-21T03:07:35.570Z,3.51
2018-11-21T03:10:05.317Z,3.45
2018-11-21T03:12:34.242Z,3.69
2018-11-21T03:15:03.172Z,3.49
2018-11-21T03:17:32.098Z,3.48
2018-11-21T03:20:01.066Z,3.45
2018-11-21T03:22:29.983Z,3.41
2018-11-21T03:24:58.883Z,3.42
2018-11-21T03:27:27.775Z,3.32
2018-11-21T03:29:56.682Z,3.34
2018-11-21T03:32:25.611Z,3.34
2018-11-21T03:34:54.562Z,3.36
2018-11-21T03:37:23.493Z,3.44
2018-11-21T03:39:52.389Z,3.40
2018-11-21T03:42:21.301Z,3.40
2018-11-21T03:44:50.190Z,3.32
2018-11-21T03:47:20.481Z,3.32
2018-11-21T03:49:48.030Z,3.41
2018-11-21T03:52:16.968Z,3.36
2018-11-21T03:54:45.874Z,3.32
2018-11-21T03:57:14.812Z,3.33
2018-11-21T03:59:43.758Z,3.22
2018-11-21T04:02:12.690Z,3.16
2018-11-21T04:04:41.660Z,3.20
2018-11-21T04:07:10.514Z,3.25
2018-11-21T04:09:39.453Z,3.16
2018-11-21T04:12:08.387Z,3.08
2018-11-21T04:14:37.321Z,3.04
2018-11-21T04:17:06.509Z,3.06
2018-11-21T04:19:35.447Z,3.05
2018-11-21T04:22:04.402Z,3.00
2018-11-21T04:24:33.373Z,3.24
2018-11-21T04:27:02.257Z,2.98
2018-11-21T04:29:31.186Z,2.80
2018-11-21T04:32:00.113Z,2.92
2018-11-21T04:34:29.028Z,2.92
2018-11-21T04:36:57.932Z,2.90
2018-11-21T04:39:26.831Z,2.83
2018-11-21T04:41:55.776Z,2.88
2018-11-21T04:44:24.649Z,2.86
2018-11-21T04:46:53.612Z,2.87
2018-11-21T04:49:22.505Z,2.85
2018-11-21T04:51:51.433Z,2.87
2018-11-21T04:54:20.327Z,2.90
2018-11-21T04:56:49.267Z,2.97
2018-11-21T04:59:18.229Z,3.09
2018-11-21T05:01:47.085Z,3.09
2018-11-21T05:04:15.981Z,3.18
2018-11-21T05:06:44.919Z,3.15
2018-11-21T05:09:13.787Z,3.19
2018-11-21T05:11:42.795Z,3.22
2018-11-21T05:14:11.786Z,3.54
2018-11-21T05:16:40.716Z,3.31
2018-11-21T05:19:09.680Z,3.29
2018-11-21T05:21:38.626Z,3.39
2018-11-21T05:24:07.604Z,3.25
2018-11-21T05:26:36.506Z,3.62
2018-11-21T05:29:05.673Z,3.49
2018-11-21T05:31:34.571Z,3.33
2018-11-21T05:34:03.494Z,3.27
2018-11-21T05:36:32.394Z,3.04
2018-11-21T05:39:01.324Z,3.17
2018-11-21T05:41:30.235Z,3.18
2018-11-21T05:43:59.146Z,3.15
2018-11-21T05:46:28.122Z,3.16
2018-11-21T05:48:57.047Z,3.12
2018-11-21T05:51:26.058Z,3.05
2018-11-21T05:53:55.027Z,3.33
2018-11-21T05:56:24.008Z,3.14
2018-11-21T05:58:52.900Z,3.15
2018-11-21T06:01:21.881Z,3.14
2018-11-21T06:03:50.786Z,3.04
2018-11-21T06:06:19.695Z,2.92
2018-11-21T06:08:48.628Z,2.78
2018-11-21T06:11:17.531Z,2.81
2018-11-21T06:13:46.413Z,2.79
2018-11-21T06:16:15.373Z,2.76
2018-11-21T06:18:44.302Z,2.67
2018-11-21T06:21:13.215Z,2.68
2018-11-21T06:23:42.226Z,2.62
2018-11-21T06:26:11.161Z,2.63
2018-11-21T06:28:40.324Z,2.62
2018-11-21T06:31:09.238Z,2.62
2018-11-21T06:33:39.918Z,2.62
2018-11-21T06:36:08.865Z,2.61
2018-11-21T06:38:37.776Z,2.59
2018-11-21T06:41:06.672Z,2.55
2018-11-21T06:43:35.594Z,2.56
2018-11-21T06:46:04.622Z,2.52
2018-11-21T06:48:33.560Z,2.51
2018-11-21T06:51:02.539Z,2.52
2018-11-21T06:53:31.460Z,2.51
2018-11-21T06:56:00.381Z,2.49
2018-11-21T06:58:29.305Z,2.52
2018-11-21T07:00:58.229Z,2.43
2018-11-21T07:03:27.131Z,2.42
2018-11-21T07:05:56.052Z,2.44
2018-11-21T07:08:24.935Z,2.45
2018-11-21T07:10:53.870Z,2.37
2018-11-21T07:13:22.744Z,2.35
2018-11-21T07:15:51.674Z,2.37
2018-11-21T07:18:20.588Z,2.37
2018-11-21T07:20:49.526Z,2.36
2018-11-21T07:23:18.507Z,2.60
2018-11-21T07:25:47.336Z,2.46
2018-11-21T07:28:16.258Z,2.45
2018-11-21T07:30:45.203Z,2.42
2018-11-21T07:33:14.099Z,2.40
2018-11-21T07:35:43.049Z,2.35
2018-11-21T07:38:11.968Z,2.33
2018-11-21T07:40:40.878Z,2.38
2018-11-21T07:43:09.828Z,2.40
2018-11-21T07:45:38.718Z,2.51
2018-11-21T07:48:07.675Z,2.46
2018-11-21T07:50:36.579Z,2.49
2018-11-21T07:53:05.735Z,2.76
2018-11-21T07:55:34.641Z,2.65
2018-11-21T07:58:06.452Z,2.76
2018-11-21T08:01:32.172Z,2.86
2018-11-21T08:04:04.527Z,3.12
2018-11-21T08:06:58.693Z,3.09
2018-11-21T08:09:42.843Z,3.22
2018-11-21T08:12:33.431Z,3.27
2018-11-21T08:15:27.393Z,3.34
2018-11-21T08:18:13.950Z,3.40
2018-11-21T08:21:04.844Z,3.48
2018-11-21T08:23:55.571Z,3.64
2018-11-21T08:26:41.230Z,3.83
2018-11-21T08:29:10.183Z,4.23
2018-11-21T08:31:39.096Z,4.27
2018-11-21T08:34:08.009Z,4.24
2018-11-21T08:36:36.938Z,4.39
2018-11-21T08:39:08.384Z,4.68
2018-11-21T08:41:37.333Z,4.96
2018-11-21T08:44:06.882Z,5.42
2018-11-21T08:46:35.968Z,5.68
2018-11-21T08:49:04.802Z,5.84
2018-11-21T08:51:33.722Z,5.88
2018-11-21T08:54:02.622Z,5.92
2018-11-21T08:56:32.532Z,6.25
2018-11-21T08:59:00.469Z,5.89
2018-11-21T09:01:29.429Z,5.90
2018-11-21T09:03:58.402Z,5.76
2018-11-21T09:06:27.326Z,5.50
2018-11-21T09:08:56.271Z,5.56
2018-11-21T09:11:25.192Z,5.76
2018-11-21T09:13:54.097Z,6.22
2018-11-21T09:16:23.011Z,6.25
2018-11-21T09:18:51.955Z,6.97
2018-11-21T09:21:20.951Z,7.97
2018-11-21T09:23:49.899Z,8.81
2018-11-21T09:26:18.904Z,10.14
2018-11-21T09:28:47.888Z,10.85
2018-11-21T09:31:16.868Z,11.24
2018-11-21T09:33:50.758Z,11.96
2018-11-21T09:36:20.921Z,11.40
2018-11-21T09:38:49.935Z,11.71
2018-11-21T09:41:19.048Z,11.81
2018-11-21T09:43:47.929Z,11.49
2018-11-21T09:46:17.315Z,10.70
2018-11-21T09:48:45.776Z,10.54
2018-11-21T09:51:14.696Z,10.40
2018-11-21T09:53:43.637Z,11.14
2018-11-21T09:56:12.579Z,11.65
2018-11-21T09:58:41.516Z,11.92
2018-11-21T10:01:47.238Z,12.46
2018-11-21T10:04:16.538Z,13.24
2018-11-21T10:06:45.906Z,13.26
2018-11-21T10:09:26.293Z,13.42
2018-11-21T10:11:55.238Z,13.79
2018-11-21T10:14:24.187Z,14.25
2018-11-21T10:16:53.142Z,13.60
2018-11-21T10:19:22.121Z,13.26
2018-11-21T10:21:51.096Z,13.19
2018-11-21T10:24:19.990Z,12.94
2018-11-21T10:26:48.968Z,13.73
2018-11-21T10:29:17.894Z,14.00
2018-11-21T10:31:46.821Z,14.29
2018-11-21T10:34:15.760Z,14.32
2018-11-21T10:36:44.653Z,15.19
2018-11-21T10:39:13.592Z,15.38
2018-11-21T10:41:42.574Z,15.90
2018-11-21T10:44:11.548Z,15.71
2018-11-21T10:46:40.451Z,15.78
2018-11-21T10:49:09.478Z,15.73
2018-11-21T10:51:38.416Z,15.71
2018-11-21T10:54:07.379Z,16.09
2018-11-21T10:56:36.383Z,15.68
2018-11-21T10:59:05.377Z,15.75
2018-11-21T11:01:52.033Z,15.58
2018-11-21T11:04:27.806Z,15.80
2018-11-21T11:07:14.365Z,15.77
2018-11-21T11:09:58.185Z,15.90
2018-11-21T11:12:54.846Z,15.88
2018-11-21T11:15:51.529Z,16.01
2018-11-21T11:18:31.473Z,17.00
2018-11-21T11:21:18.288Z,16.67
2018-11-21T11:24:06.770Z,16.38
2018-11-21T11:26:53.125Z,16.13
2018-11-21T11:29:43.758Z,14.74
2018-11-21T11:32:25.956Z,13.87
2018-11-21T11:35:09.956Z,12.60
2018-11-21T11:38:13.229Z,11.92
2018-11-21T11:40:59.607Z,11.81
2018-11-21T11:43:55.622Z,11.65
2018-11-21T11:46:52.492Z,11.02
2018-11-21T11:49:43.321Z,10.68
2018-11-21T11:52:31.575Z,10.70
2018-11-21T11:55:18.169Z,10.47
2018-11-21T11:58:09.365Z,10.25
2018-11-21T12:00:45.716Z,10.09
2018-11-21T12:03:32.013Z,10.10
2018-11-21T12:06:18.816Z,10.18
2018-11-21T12:09:14.732Z,9.97
2018-11-21T12:12:11.147Z,9.94
2018-11-21T12:14:57.709Z,9.93
2018-11-21T12:17:44.695Z,9.88
2018-11-21T12:20:32.772Z,9.60
2018-11-21T12:23:19.248Z,9.57
2018-11-21T12:26:10.595Z,9.50
2018-11-21T12:28:44.835Z,9.67
2018-11-21T12:31:24.613Z,9.61
2018-11-21T12:34:11.252Z,9.83
2018-11-21T12:37:17.339Z,9.81
2018-11-21T12:40:03.788Z,9.34
2018-11-21T12:42:50.327Z,9.27
2018-11-21T12:45:33.840Z,9.34
2018-11-21T12:48:30.274Z,9.41
2018-11-21T12:51:17.121Z,9.62
2018-11-21T12:54:01.226Z,9.80
2018-11-21T12:56:37.592Z,9.43
2018-11-21T12:59:31.631Z,9.27
2018-11-21T13:02:07.402Z,9.04
2018-11-21T13:04:53.863Z,8.85
2018-11-21T13:07:41.947Z,8.53
2018-11-21T13:10:26.806Z,8.34
2018-11-21T13:13:17.870Z,8.18
2018-11-21T13:16:04.838Z,8.09
2018-11-21T13:18:52.862Z,8.01
2018-11-21T13:21:44.025Z,8.21
2018-11-21T13:24:30.669Z,8.06
2018-11-21T13:27:27.471Z,7.90
2018-11-21T13:30:14.002Z,7.79
2018-11-21T13:33:13.646Z,7.51
2018-11-21T13:36:01.631Z,7.59
2018-11-21T13:39:04.999Z,7.56
2018-11-21T13:42:05.147Z,7.67
2018-11-21T13:45:02.111Z,7.68
2018-11-21T13:47:53.286Z,8.00
2018-11-21T13:50:41.383Z,7.89
2018-11-21T13:53:48.317Z,7.91
2018-11-21T13:56:17.157Z,7.97
2018-11-21T13:58:46.071Z,8.03
2018-11-21T14:01:16.021Z,8.01
2018-11-21T14:03:44.893Z,8.03
2018-11-21T14:06:13.816Z,7.99
2018-11-21T14:08:42.722Z,7.98
2018-11-21T14:11:11.883Z,7.88
2018-11-21T14:13:40.767Z,7.81
2018-11-21T14:16:09.766Z,7.78
2018-11-21T14:18:38.686Z,7.52
2018-11-21T14:21:07.613Z,7.44
2018-11-21T14:23:36.756Z,7.43
2018-11-21T14:26:06.062Z,7.40
2018-11-21T14:28:34.984Z,7.31
2018-11-21T14:31:03.984Z,7.25
2018-11-21T14:33:32.941Z,7.22
2018-11-21T14:36:01.889Z,7.26
2018-11-21T14:38:30.771Z,7.23
2018-11-21T14:40:59.662Z,7.23
2018-11-21T14:43:28.553Z,7.25
2018-11-21T14:45:57.506Z,7.00
2018-11-21T14:48:26.422Z,6.95
2018-11-21T14:50:55.387Z,7.01
2018-11-21T14:53:24.329Z,7.05
2018-11-21T14:55:53.465Z,7.00
2018-11-21T14:58:22.427Z,6.94
2018-11-21T15:00:51.342Z,6.88
2018-11-21T15:03:20.276Z,6.78
2018-11-21T15:05:49.178Z,6.85
2018-11-21T15:08:18.122Z,6.73
2018-11-21T15:10:47.041Z,6.55
2018-11-21T15:13:16.268Z,6.93
2018-11-21T15:15:45.138Z,7.07
2018-11-21T15:18:14.124Z,6.80
2018-11-21T15:20:43.112Z,6.85
2018-11-21T15:23:12.106Z,6.84
2018-11-21T15:25:41.204Z,6.75
2018-11-21T15:28:10.207Z,6.79
2018-11-21T15:30:39.282Z,6.80
2018-11-21T15:33:08.231Z,6.73
2018-11-21T15:35:37.178Z,6.66
2018-11-21T15:38:06.203Z,6.61
2018-11-21T15:40:35.206Z,6.39
2018-11-21T15:43:04.133Z,6.48
2018-11-21T15:45:33.081Z,6.37
2018-11-21T15:48:02.416Z,6.40
2018-11-21T15:50:32.263Z,6.39
2018-11-21T15:53:01.166Z,6.50
2018-11-21T15:55:30.124Z,6.27
2018-11-21T15:57:59.086Z,6.34
2018-11-21T16:00:29.581Z,6.29
2018-11-21T16:03:00.916Z,6.36
2018-11-21T16:05:29.858Z,6.38
2018-11-21T16:08:03.300Z,6.38
2018-11-21T16:10:38.402Z,6.37
2018-11-21T16:13:07.718Z,6.31
2018-11-21T16:15:39.684Z,6.29
2018-11-21T16:18:08.635Z,6.53
2018-11-21T16:20:37.554Z,6.35
2018-11-21T16:23:11.332Z,6.30
2018-11-21T16:25:42.993Z,6.30
2018-11-21T16:28:17.237Z,6.35
2018-11-21T16:30:52.457Z,6.35
2018-11-21T16:33:25.813Z,6.31
2018-11-21T16:36:02.131Z,6.33
2018-11-21T16:38:33.235Z,6.30
2018-11-21T16:41:06.970Z,6.32
2018-11-21T16:43:40.430Z,6.42
2018-11-21T16:46:10.520Z,6.41
2018-11-21T16:48:42.414Z,6.29
2018-11-21T16:51:12.288Z,6.28
2018-11-21T16:53:53.047Z,6.25
2018-11-21T16:56:26.069Z,6.13
2018-11-21T16:58:56.476Z,6.14
2018-11-21T17:01:29.580Z,6.14
2018-11-21T17:04:06.032Z,6.14
2018-11-21T17:06:40.705Z,6.16
2018-11-21T17:09:18.442Z,6.14
2018-11-21T17:11:52.203Z,6.11
2018-11-21T17:14:34.020Z,6.24
2018-11-21T17:17:09.686Z,6.22
2018-11-21T17:19:42.320Z,6.27
2018-11-21T17:22:17.344Z,6.14
2018-11-21T17:24:48.002Z,6.07
2018-11-21T17:27:17.927Z,5.98
2018-11-21T17:29:53.907Z,6.11
2018-11-21T17:32:20.670Z,6.13
2018-11-21T17:34:49.967Z,6.17
2018-11-21T17:37:21.794Z,6.45
2018-11-21T17:39:57.016Z,6.59
2018-11-21T17:42:35.895Z,6.40
2018-11-21T17:45:10.573Z,6.39
2018-11-21T17:47:40.540Z,6.25
2018-11-21T17:50:14.801Z,6.20
2018-11-21T17:52:45.050Z,6.25
2018-11-21T17:55:19.806Z,6.10
2018-11-21T17:57:50.132Z,6.10
2018-11-21T18:00:24.439Z,6.06
2018-11-21T18:02:54.092Z,6.36
2018-11-21T18:05:29.630Z,6.06
2018-11-21T18:08:03.310Z,6.20
2018-11-21T18:10:36.898Z,6.25
2018-11-21T18:13:12.652Z,6.11
2018-11-21T18:15:43.303Z,6.03
2018-11-21T18:18:18.911Z,6.03
2018-11-21T18:20:47.123Z,6.04
2018-11-21T18:23:17.265Z,6.09
2018-11-21T18:25:47.851Z,6.01
2018-11-21T18:28:18.706Z,5.94
2018-11-21T18:31:05.941Z,6.03
2018-11-21T18:33:35.682Z,6.04
2018-11-21T18:36:08.477Z,5.96
2018-11-21T18:38:38.499Z,5.86
2018-11-21T18:41:10.777Z,6.01
2018-11-21T18:43:40.346Z,5.99
2018-11-21T18:46:13.116Z,5.97
2018-11-21T18:48:40.951Z,5.92
2018-11-21T18:51:13.329Z,6.00
2018-11-21T18:53:43.257Z,6.00
2018-11-21T18:56:46.426Z,6.01
2018-11-21T18:59:52.328Z,5.95
2018-11-21T19:02:26.704Z,6.01
2018-11-21T19:04:59.943Z,5.88
2018-11-21T19:07:30.345Z,5.97
2018-11-21T19:10:06.269Z,5.91
2018-11-21T19:12:34.226Z,5.91
2018-11-21T19:15:06.641Z,5.90
2018-11-21T19:17:48.571Z,5.91
2018-11-21T19:20:17.920Z,5.90
2018-11-21T19:22:50.684Z,5.89
2018-11-21T19:25:20.908Z,5.96
2018-11-21T19:27:52.520Z,6.03
2018-11-21T19:30:23.278Z,6.04
2018-11-21T19:33:00.233Z,5.90
2018-11-21T19:35:33.353Z,5.93
2018-11-21T19:38:05.227Z,5.92
2018-11-21T19:40:34.869Z,5.97
2018-11-21T19:43:05.212Z,5.96
2018-11-21T19:45:37.646Z,5.99
2018-11-21T19:48:07.853Z,6.01
2018-11-21T19:50:42.747Z,6.03
2018-11-21T19:53:13.137Z,6.04
2018-11-21T19:55:48.289Z,6.02
2018-11-21T19:58:18.533Z,5.97
2018-11-21T20:00:48.577Z,5.94
2018-11-21T20:03:18.550Z,5.87
2018-11-21T20:05:50.786Z,5.98
2018-11-21T20:08:28.566Z,6.00
2018-11-21T20:11:08.356Z,5.95
2018-11-21T20:13:40.718Z,6.01
2018-11-21T20:16:13.332Z,6.00
2018-11-21T20:18:42.943Z,5.90
2018-11-21T20:21:14.976Z,5.86
2018-11-21T20:23:47.319Z,5.90
2018-11-21T20:26:19.260Z,5.80
2018-11-21T20:28:49.425Z,5.77
2018-11-21T20:31:22.727Z,5.67
2018-11-21T20:33:55.212Z,5.66
2018-11-21T20:36:28.017Z,5.60
2018-11-21T20:39:05.723Z,5.93
2018-11-21T20:41:38.425Z,5.79
2018-11-21T20:44:14.475Z,5.76
2018-11-21T20:46:44.348Z,5.74
2018-11-21T20:49:13.782Z,5.73
2018-11-21T20:51:46.025Z,5.75
2018-11-21T20:54:15.534Z,5.75
2018-11-21T20:56:45.697Z,5.81
2018-11-21T20:59:20.099Z,5.76
2018-11-21T21:01:53.032Z,5.77
2018-11-21T21:04:24.762Z,5.77
2018-11-21T21:06:56.904Z,5.70
2018-11-21T21:09:31.977Z,5.69
2018-11-21T21:12:00.900Z,5.70
2018-11-21T21:14:29.859Z,5.64
2018-11-21T21:16:58.777Z,5.63
2018-11-21T21:19:27.685Z,5.65
2018-11-21T21:21:56.603Z,5.66
2018-11-21T21:24:25.585Z,5.73
2018-11-21T21:26:54.501Z,5.75
2018-11-21T21:29:23.396Z,5.78
2018-11-21T21:31:52.295Z,5.81
2018-11-21T21:34:21.189Z,5.81
2018-11-21T21:36:50.162Z,5.82
2018-11-21T21:39:19.146Z,5.85
2018-11-21T21:41:49.578Z,5.86
2018-11-21T21:44:18.432Z,5.90
2018-11-21T21:46:47.344Z,5.90
2018-11-21T21:49:16.268Z,5.77
2018-11-21T21:51:45.210Z,5.83
2018-11-21T21:54:14.125Z,5.76
2018-11-21T21:56:43.027Z,5.77
2018-11-21T21:59:12.381Z,5.79
2018-11-21T22:01:41.359Z,5.76
2018-11-21T22:04:10.250Z,5.75
2018-11-21T22:06:39.203Z,5.72
2018-11-21T22:09:12.423Z,5.97
2018-11-21T22:11:41.722Z,6.10
2018-11-21T22:14:10.938Z,5.78
2018-11-21T22:16:39.868Z,5.78
2018-11-21T22:19:08.811Z,5.66
2018-11-21T22:21:37.749Z,5.60
2018-11-21T22:24:06.643Z,5.59
2018-11-21T22:26:35.584Z,5.48
2018-11-21T22:29:04.503Z,5.49
2018-11-21T22:31:33.420Z,5.64
2018-11-21T22:34:02.440Z,5.48
2018-11-21T22:36:31.314Z,5.32
2018-11-21T22:39:00.238Z,5.43
2018-11-21T22:41:29.129Z,5.50
2018-11-21T22:43:58.088Z,5.48
2018-11-21T22:46:27.037Z,5.46
2018-11-21T22:48:55.999Z,5.46
2018-11-21T22:51:24.932Z,5.44
2018-11-21T22:53:53.857Z,5.53
2018-11-21T22:56:22.752Z,5.53
2018-11-21T22:58:51.741Z,5.42
2018-11-21T23:01:28.223Z,5.39
2018-11-21T23:03:57.151Z,5.49
2018-11-21T23:06:26.049Z,5.22
2018-11-21T23:08:55.032Z,5.35
2018-11-21T23:15:06.115Z,5.81
2018-11-21T23:17:35.104Z,5.58
2018-11-21T23:20:05.398Z,5.55
2018-11-21T23:22:34.441Z,5.55
2018-11-21T23:25:03.486Z,5.58
2018-11-21T23:27:32.497Z,5.95
2018-11-21T23:30:01.591Z,5.76
2018-11-21T23:32:30.835Z,5.58
2018-11-21T23:34:59.798Z,5.63
2018-11-21T23:37:28.802Z,5.53
2018-11-21T23:39:57.752Z,5.52
2018-11-21T23:42:26.786Z,5.42
2018-11-21T23:44:55.790Z,5.48
2018-11-21T23:47:24.809Z,5.49
2018-11-21T23:49:53.788Z,5.44
2018-11-21T23:52:22.786Z,5.45
2018-11-21T23:54:51.782Z,5.39
2018-11-21T23:57:24.723Z,5.36
2018-11-21T23:59:49.751Z,5.62
